Time;durP1;ratioP1;P1;durP2;ratioP2;P2;SDS_P1;SDS_P2;PMS_P1;PMS_P2;Temp;Humidity;BMP_temperature;BMP_pressure;BME280_temperature;BME280_humidity;BME280_pressure;Samples;Min_cycle;Max_cycle;Signal;HPM_P1;HPM_P2
2022/10/12 00:01:57;;;;;;;2.30;1.63;;;6.60;99.90;;;;;;4797523;29;20233;-88
2022/10/12 00:04:22;;;;;;;5.17;2.00;;;6.60;99.90;;;;;;4807430;29;20194;-88
2022/10/12 00:09:23;;;;;;;3.37;1.80;;;6.40;99.90;;;;;;5158454;24;20260;-88
2022/10/12 00:11:49;;;;;;;7.27;2.37;;;6.50;99.90;;;;;;4826114;29;20182;-87
2022/10/12 00:14:15;;;;;;;7.87;2.50;;;6.50;99.90;;;;;;4825536;29;20273;-87
2022/10/12 00:16:41;;;;;;;6.20;1.97;;;6.50;99.90;;;;;;4825920;29;20192;-89
2022/10/12 00:19:12;;;;;;;4.10;2.00;;;6.40;99.90;;;;;;4825844;29;20221;-89
2022/10/12 00:21:38;;;;;;;6.60;2.30;;;6.30;99.90;;;;;;4809269;29;20226;-87
2022/10/12 00:24:04;;;;;;;6.10;2.30;;;6.20;99.90;;;;;;4825252;29;20527;-88
2022/10/12 00:26:30;;;;;;;7.73;2.10;;;6.10;99.90;;;;;;4824295;29;20194;-88
2022/10/12 00:28:59;;;;;;;11.20;1.93;;;6.20;99.90;;;;;;4808945;29;20246;-88
2022/10/12 00:31:26;;;;;;;5.50;1.93;;;6.20;99.90;;;;;;4809468;29;20223;-88
2022/10/12 00:33:53;;;;;;;4.47;2.03;;;6.30;99.90;;;;;;4809296;29;20491;-87
2022/10/12 00:36:22;;;;;;;6.97;1.97;;;6.30;99.90;;;;;;4809127;29;20186;-87
2022/10/12 00:38:49;;;;;;;8.77;2.03;;;6.30;99.90;;;;;;4801033;29;20550;-87
2022/10/12 00:41:17;;;;;;;4.17;1.90;;;6.30;99.90;;;;;;4807198;29;20293;-88
2022/10/12 00:43:44;;;;;;;5.60;1.73;;;6.30;99.90;;;;;;4791143;29;20193;-88
2022/10/12 00:46:21;;;;;;;5.87;1.90;;;6.30;99.90;;;;;;4790957;29;20585;-88
2022/10/12 00:48:53;;;;;;;3.70;1.73;;;6.40;99.90;;;;;;4791197;29;20649;-88
2022/10/12 00:51:22;;;;;;;4.63;1.43;;;6.30;99.90;;;;;;4807441;29;20206;-89
2022/10/12 00:53:54;;;;;;;7.97;1.70;;;6.20;99.90;;;;;;4791098;29;20189;-88
2022/10/12 00:56:24;;;;;;;8.53;2.10;;;6.10;99.90;;;;;;4807257;29;20202;-89
2022/10/12 00:58:53;;;;;;;5.63;1.73;;;6.00;99.90;;;;;;4791123;29;20609;-88
2022/10/12 01:01:22;;;;;;;5.07;1.80;;;6.10;99.90;;;;;;4793182;29;20257;-88
2022/10/12 01:03:49;;;;;;;4.07;2.10;;;6.00;99.90;;;;;;4794455;29;20186;-90
2022/10/12 01:06:15;;;;;;;5.73;1.63;;;5.80;99.90;;;;;;4794390;29;20500;-89
2022/10/12 01:08:42;;;;;;;8.23;2.03;;;5.80;99.90;;;;;;4800819;29;20579;-89
2022/10/12 01:11:09;;;;;;;8.80;2.10;;;6.00;99.90;;;;;;4828524;29;20681;-89
2022/10/12 01:13:35;;;;;;;6.37;1.87;;;6.00;99.90;;;;;;4827532;29;20186;-89
2022/10/12 01:16:30;;;;;;;5.80;1.90;;;6.10;99.90;;;;;;4827386;29;20204;-88
2022/10/12 01:19:15;;;;;;;5.77;1.63;;;5.90;99.90;;;;;;4786364;29;20322;-89
2022/10/12 01:21:50;;;;;;;6.63;2.20;;;5.90;99.90;;;;;;4812276;29;20549;-89
2022/10/12 01:24:34;;;;;;;5.97;1.63;;;5.70;99.90;;;;;;4826917;29;20512;-88
2022/10/12 01:27:22;;;;;;;4.83;1.70;;;5.70;99.90;;;;;;4827100;29;20186;-90
2022/10/12 01:30:03;;;;;;;2.80;1.67;;;5.80;99.90;;;;;;4827142;29;20544;-87
2022/10/12 01:32:45;;;;;;;6.97;1.77;;;5.70;99.90;;;;;;4828194;29;20174;-88
2022/10/12 01:35:46;;;;;;;4.90;1.60;;;5.80;99.90;;;;;;4827102;29;20282;-89
2022/10/12 01:38:15;;;;;;;4.63;1.60;;;6.00;99.90;;;;;;4826382;29;20193;-89
2022/10/12 01:41:02;;;;;;;5.60;1.73;;;5.80;99.90;;;;;;4811833;29;20230;-88
2022/10/12 01:43:36;;;;;;;3.27;1.10;;;5.60;99.90;;;;;;4811710;29;20192;-89
2022/10/12 01:46:12;;;;;;;3.73;1.53;;;5.60;99.90;;;;;;4811604;29;20570;-88
2022/10/12 01:48:39;;;;;;;1.87;1.37;;;5.50;99.90;;;;;;4827950;29;20170;-89
2022/10/12 01:51:15;;;;;;;6.33;1.83;;;5.40;99.90;;;;;;4811552;29;20666;-89
2022/10/12 01:53:52;;;;;;;5.67;1.30;;;5.30;99.90;;;;;;4827724;29;20169;-89
2022/10/12 01:56:28;;;;;;;6.17;1.40;;;5.10;99.90;;;;;;4811588;29;20200;-88
2022/10/12 01:59:33;;;;;;;2.60;1.37;;;5.20;99.90;;;;;;4811694;29;20185;-89
2022/10/12 02:02:31;;;;;;;5.43;1.87;;;5.30;99.90;;;;;;4756858;30;20228;-89
2022/10/12 02:05:04;;;;;;;2.77;1.70;;;5.50;99.90;;;;;;4827879;29;20170;-89
2022/10/12 02:07:49;;;;;;;3.13;1.40;;;5.60;99.90;;;;;;4811625;29;20314;-88
2022/10/12 02:10:34;;;;;;;4.00;1.60;;;5.70;99.90;;;;;;4793448;29;20203;-88
2022/10/12 02:13:04;;;;;;;3.43;1.67;;;5.60;99.90;;;;;;4807946;29;20183;-89
2022/10/12 02:15:32;;;;;;;4.10;1.47;;;5.40;99.90;;;;;;4807477;29;20183;-88
2022/10/12 02:17:59;;;;;;;3.53;1.60;;;5.30;99.90;;;;;;4807687;29;20289;-89
2022/10/12 02:20:26;;;;;;;5.90;1.90;;;5.50;99.90;;;;;;4809373;29;20224;-89
2022/10/12 02:22:53;;;;;;;5.00;1.50;;;5.60;99.90;;;;;;4808337;29;20623;-88
2022/10/12 02:25:23;;;;;;;5.03;1.40;;;5.40;99.90;;;;;;4792815;29;20606;-89
2022/10/12 02:28:01;;;;;;;5.97;1.87;;;5.40;99.90;;;;;;4807761;29;20239;-89
2022/10/12 02:30:27;;;;;;;3.93;1.40;;;5.30;99.90;;;;;;4792478;29;20186;-89
2022/10/12 02:33:11;;;;;;;3.20;1.53;;;5.20;99.90;;;;;;4807521;29;20183;-88
2022/10/12 02:35:53;;;;;;;5.40;1.50;;;5.20;99.90;;;;;;4807773;29;20583;-87
2022/10/12 02:38:25;;;;;;;2.87;1.50;;;5.40;99.90;;;;;;4812354;29;20193;-86
2022/10/12 02:40:59;;;;;;;6.13;1.20;;;5.30;99.90;;;;;;4825893;29;20213;-88
2022/10/12 02:43:43;;;;;;;1.97;1.30;;;5.20;99.90;;;;;;4841123;29;20273;-88
2022/10/12 02:46:10;;;;;;;3.87;1.60;;;5.30;99.90;;;;;;4841016;29;20236;-88
2022/10/12 02:48:38;;;;;;;6.23;2.03;;;5.30;99.90;;;;;;4840953;29;20214;-88
2022/10/12 02:51:05;;;;;;;5.83;1.93;;;5.20;99.90;;;;;;4841197;29;20190;-88
2022/10/12 02:53:31;;;;;;;2.67;1.40;;;5.20;99.90;;;;;;4829084;29;20190;-88
2022/10/12 02:56:04;;;;;;;4.17;1.33;;;5.20;99.90;;;;;;4810234;29;20190;-88
2022/10/12 02:58:30;;;;;;;6.17;1.30;;;5.10;99.90;;;;;;4810402;29;20201;-88
2022/10/12 03:00:56;;;;;;;5.17;1.50;;;5.10;99.90;;;;;;4810477;29;20801;-88
2022/10/12 03:03:22;;;;;;;3.70;1.60;;;5.10;99.90;;;;;;4810158;29;20182;-88
2022/10/12 03:05:48;;;;;;;7.30;1.60;;;5.20;99.90;;;;;;4810390;29;20189;-87
2022/10/12 03:08:14;;;;;;;6.67;1.40;;;5.40;99.90;;;;;;4806845;29;20677;-88
2022/10/12 03:10:41;;;;;;;6.37;1.33;;;5.50;99.90;;;;;;4808193;29;20174;-88
2022/10/12 03:13:06;;;;;;;4.67;1.30;;;5.30;99.90;;;;;;4792231;29;20175;-88
2022/10/12 03:15:32;;;;;;;5.90;1.80;;;5.30;99.90;;;;;;4808268;29;20642;-88
2022/10/12 03:17:58;;;;;;;4.73;1.40;;;5.30;99.90;;;;;;4791956;29;20190;-88
2022/10/12 03:20:23;;;;;;;4.40;1.50;;;5.40;99.90;;;;;;4792167;29;20214;-88
2022/10/12 03:22:49;;;;;;;3.70;1.40;;;5.40;99.90;;;;;;4808025;29;20579;-89
2022/10/12 03:25:15;;;;;;;5.77;1.43;;;5.20;99.90;;;;;;4806898;29;20564;-88
2022/10/12 03:27:41;;;;;;;2.37;1.13;;;5.30;99.90;;;;;;4808018;29;20638;-88
2022/10/12 03:30:08;;;;;;;2.47;1.20;;;5.40;99.90;;;;;;4791959;29;20194;-88
2022/10/12 03:32:33;;;;;;;2.40;1.20;;;5.40;99.90;;;;;;4808123;29;20193;-88
2022/10/12 03:34:59;;;;;;;3.27;1.50;;;5.40;99.90;;;;;;4791762;29;20187;-88
2022/10/12 03:37:25;;;;;;;5.13;1.37;;;5.50;99.90;;;;;;4798755;29;20198;-88
2022/10/12 03:39:50;;;;;;;2.30;1.40;;;5.20;99.90;;;;;;4826068;29;20266;-88
2022/10/12 03:42:16;;;;;;;1.57;1.13;;;5.00;99.90;;;;;;4826404;29;20553;-88
2022/10/12 03:44:42;;;;;;;3.77;1.20;;;5.00;99.90;;;;;;4809772;29;20182;-88
2022/10/12 03:47:07;;;;;;;3.93;1.57;;;5.00;99.90;;;;;;4824953;29;20217;-88
2022/10/12 03:49:33;;;;;;;6.30;1.50;;;4.90;99.90;;;;;;4809599;29;20186;-87
2022/10/12 03:51:59;;;;;;;4.73;1.60;;;5.00;99.90;;;;;;4826008;29;20182;-88
2022/10/12 03:54:25;;;;;;;6.60;1.70;;;5.00;99.90;;;;;;4809615;29;20185;-88
2022/10/12 03:56:50;;;;;;;6.30;1.53;;;5.10;99.90;;;;;;4809222;29;20186;-89
2022/10/12 03:59:16;;;;;;;7.27;1.53;;;5.00;99.90;;;;;;4809202;29;20194;-88
2022/10/12 04:01:43;;;;;;;4.37;1.70;;;5.10;99.90;;;;;;4809291;29;20282;-88
2022/10/12 04:04:10;;;;;;;3.93;1.63;;;5.20;99.90;;;;;;4809349;29;20642;-88
2022/10/12 04:06:35;;;;;;;2.80;1.40;;;5.10;99.90;;;;;;4809524;29;20185;-88
2022/10/12 04:09:01;;;;;;;5.80;1.50;;;5.10;99.90;;;;;;4815622;29;20580;-88
2022/10/12 04:11:30;;;;;;;4.00;1.50;;;5.10;99.90;;;;;;4839803;29;20200;-87
2022/10/12 04:13:56;;;;;;;4.90;1.40;;;5.00;99.90;;;;;;4839802;29;20195;-88
2022/10/12 04:16:21;;;;;;;3.80;1.27;;;4.90;99.90;;;;;;4825716;29;20186;-88
2022/10/12 04:18:47;;;;;;;5.23;1.60;;;5.00;99.90;;;;;;4824698;29;20190;-88
2022/10/12 04:21:15;;;;;;;4.23;1.37;;;5.10;99.90;;;;;;4825781;29;20292;-89
2022/10/12 04:23:42;;;;;;;7.63;1.60;;;5.00;99.90;;;;;;4839577;29;20268;-88
2022/10/12 04:26:08;;;;;;;2.63;1.40;;;5.00;99.90;;;;;;4825677;29;20265;-88
2022/10/12 04:28:34;;;;;;;3.43;1.53;;;5.00;99.90;;;;;;4840074;29;20190;-88
2022/10/12 04:31:00;;;;;;;5.03;1.23;;;5.00;99.90;;;;;;4839762;29;20592;-88
2022/10/12 04:33:26;;;;;;;3.07;1.50;;;4.90;99.90;;;;;;4824215;29;20227;-88
2022/10/12 04:35:51;;;;;;;5.33;1.70;;;5.00;99.90;;;;;;4841369;29;20197;-88
2022/10/12 04:38:17;;;;;;;5.97;1.70;;;4.90;99.90;;;;;;4829305;29;20197;-88
2022/10/12 04:40:47;;;;;;;2.80;1.30;;;4.80;99.90;;;;;;4828673;29;20216;-88
2022/10/12 04:43:17;;;;;;;5.83;1.37;;;4.90;99.90;;;;;;4843212;29;20243;-89
2022/10/12 04:45:53;;;;;;;1.70;0.90;;;4.90;99.90;;;;;;4843129;29;20190;-89
2022/10/12 04:48:19;;;;;;;3.23;1.50;;;4.80;99.90;;;;;;4843237;29;20182;-89
2022/10/12 04:50:45;;;;;;;2.33;0.93;;;4.80;99.90;;;;;;4843313;29;20193;-89
2022/10/12 04:53:18;;;;;;;2.13;1.20;;;4.80;99.90;;;;;;4843193;29;20212;-89
2022/10/12 04:55:43;;;;;;;4.50;1.30;;;4.70;99.90;;;;;;4828632;29;20179;-89
2022/10/12 04:58:09;;;;;;;2.43;1.20;;;4.60;99.90;;;;;;4827422;29;20330;-89
2022/10/12 05:00:35;;;;;;;2.77;1.30;;;4.50;99.90;;;;;;4842916;29;20205;-88
2022/10/12 05:03:14;;;;;;;3.07;1.20;;;4.50;99.90;;;;;;4842953;29;20198;-89
2022/10/12 05:05:42;;;;;;;3.20;1.27;;;4.50;99.90;;;;;;4828558;29;20174;-88
2022/10/12 05:08:08;;;;;;;2.93;0.97;;;4.50;99.90;;;;;;4827297;29;20297;-88
2022/10/12 05:10:34;;;;;;;2.27;1.13;;;4.60;99.90;;;;;;4815285;29;20927;-88
2022/10/12 05:13:04;;;;;;;1.40;0.93;;;4.40;99.90;;;;;;4821517;29;20194;-88
2022/10/12 05:15:29;;;;;;;1.33;1.00;;;4.30;99.90;;;;;;4842939;29;20213;-88
2022/10/12 05:17:55;;;;;;;1.90;1.30;;;4.10;99.90;;;;;;4846780;29;20217;-87
2022/10/12 05:20:21;;;;;;;3.23;1.23;;;4.30;99.90;;;;;;4830524;29;20523;-88
2022/10/12 05:22:49;;;;;;;2.90;1.17;;;4.40;99.90;;;;;;4826894;29;20201;-88
2022/10/12 05:25:16;;;;;;;2.10;1.20;;;4.30;99.90;;;;;;4818263;29;20182;-89
2022/10/12 05:27:42;;;;;;;2.90;1.23;;;4.20;99.90;;;;;;4843833;29;20238;-88
2022/10/12 05:30:08;;;;;;;4.77;1.10;;;4.30;99.90;;;;;;4830042;29;20182;-89
2022/10/12 05:32:35;;;;;;;3.33;1.20;;;4.40;99.90;;;;;;4830014;29;20218;-89
2022/10/12 05:35:00;;;;;;;5.57;1.50;;;4.30;99.90;;;;;;4819660;29;20193;-89
2022/10/12 05:37:26;;;;;;;2.57;1.50;;;4.20;99.90;;;;;;4811916;29;20190;-89
2022/10/12 05:39:52;;;;;;;4.87;1.93;;;4.10;99.90;;;;;;4816107;29;20192;-88
2022/10/12 05:42:18;;;;;;;2.73;1.80;;;4.10;99.90;;;;;;4829494;29;20273;-88
2022/10/12 05:44:43;;;;;;;6.17;2.70;;;4.20;99.90;;;;;;4846136;29;20174;-88
2022/10/12 05:47:09;;;;;;;4.27;1.73;;;4.20;99.90;;;;;;4845172;29;20620;-88
2022/10/12 05:49:35;;;;;;;4.73;1.53;;;4.20;99.90;;;;;;4829146;29;20276;-88
2022/10/12 05:52:01;;;;;;;3.27;1.37;;;4.20;99.90;;;;;;4828498;29;20261;-85
2022/10/12 05:54:26;;;;;;;6.43;2.00;;;4.30;99.90;;;;;;4810204;29;20190;-87
2022/10/12 05:56:52;;;;;;;2.57;1.20;;;4.20;99.90;;;;;;4810962;29;20190;-88
2022/10/12 05:59:18;;;;;;;3.33;1.40;;;4.20;99.90;;;;;;4827167;29;20189;-87
2022/10/12 06:01:44;;;;;;;2.33;1.00;;;4.20;99.90;;;;;;4827176;29;20222;-87
2022/10/12 06:04:11;;;;;;;7.80;1.47;;;4.10;99.90;;;;;;4811136;29;20272;-88
2022/10/12 06:06:37;;;;;;;4.63;1.63;;;4.00;99.90;;;;;;4827864;29;20204;-88
2022/10/12 06:09:03;;;;;;;3.40;1.60;;;3.90;99.90;;;;;;4825486;29;20233;-87
2022/10/12 06:11:29;;;;;;;5.53;2.30;;;3.90;99.90;;;;;;4843136;29;20197;-87
2022/10/12 06:13:57;;;;;;;3.47;2.17;;;3.90;99.90;;;;;;4824201;29;20200;-87
2022/10/12 06:16:22;;;;;;;3.47;2.60;;;3.90;99.90;;;;;;4826057;29;20186;-89
2022/10/12 06:18:48;;;;;;;2.50;2.07;;;4.00;99.90;;;;;;4841189;29;20242;-88
2022/10/12 06:21:14;;;;;;;3.20;1.97;;;4.10;99.90;;;;;;4840881;29;20253;-88
2022/10/12 06:23:40;;;;;;;2.77;1.77;;;4.10;99.90;;;;;;4838582;29;20189;-87
2022/10/12 06:26:05;;;;;;;2.13;1.67;;;4.10;99.90;;;;;;4842412;29;20192;-89
2022/10/12 06:28:31;;;;;;;2.67;1.50;;;4.10;99.90;;;;;;4825378;29;20194;-88
2022/10/12 06:30:59;;;;;;;4.10;1.60;;;4.20;99.90;;;;;;4844202;29;20236;-89
2022/10/12 06:33:26;;;;;;;2.97;1.40;;;4.10;99.90;;;;;;4828783;29;20192;-88
2022/10/12 06:35:52;;;;;;;2.07;0.90;;;4.10;99.90;;;;;;4829156;29;20549;-88
2022/10/12 06:38:18;;;;;;;2.23;1.40;;;4.00;99.90;;;;;;4824475;29;20190;-88
2022/10/12 06:40:44;;;;;;;1.83;1.40;;;4.10;99.90;;;;;;4813846;29;20214;-88
2022/10/12 06:43:11;;;;;;;1.40;1.20;;;4.10;99.90;;;;;;4826690;29;20621;-88
2022/10/12 06:45:37;;;;;;;2.00;1.40;;;4.20;99.90;;;;;;4825707;29;20186;-88
2022/10/12 06:48:03;;;;;;;3.07;1.90;;;4.30;99.90;;;;;;4840807;29;20182;-88
2022/10/12 06:50:29;;;;;;;1.63;1.23;;;4.40;99.90;;;;;;4840577;29;20209;-89
2022/10/12 06:52:56;;;;;;;1.67;1.23;;;4.50;99.90;;;;;;4840903;29;20618;-88
2022/10/12 06:55:21;;;;;;;5.03;1.40;;;4.50;99.90;;;;;;4840387;29;20185;-88
2022/10/12 06:57:47;;;;;;;2.77;1.60;;;4.50;99.90;;;;;;4839703;29;20194;-89
2022/10/12 07:00:13;;;;;;;2.00;1.30;;;4.60;99.90;;;;;;4840169;29;20189;-88
2022/10/12 07:02:40;;;;;;;3.07;1.53;;;4.50;99.90;;;;;;4825578;29;20199;-89
2022/10/12 07:05:07;;;;;;;3.93;1.57;;;4.60;99.90;;;;;;4825367;29;20647;-89
2022/10/12 07:07:34;;;;;;;2.63;1.37;;;4.60;99.90;;;;;;4827320;29;20190;-88
2022/10/12 07:10:00;;;;;;;2.13;1.30;;;4.60;99.90;;;;;;4810159;29;20249;-87
2022/10/12 07:12:26;;;;;;;2.77;1.17;;;4.70;99.90;;;;;;4825838;29;20256;-87
2022/10/12 07:14:56;;;;;;;8.00;1.70;;;4.80;99.90;;;;;;4809069;29;20793;-87
2022/10/12 07:17:22;;;;;;;2.47;1.20;;;5.00;99.90;;;;;;4812023;29;20881;-87
2022/10/12 07:19:48;;;;;;;2.20;1.30;;;5.10;99.90;;;;;;4827493;29;20237;-87
2022/10/12 07:22:13;;;;;;;2.03;1.30;;;5.10;99.90;;;;;;4844007;29;20273;-88
2022/10/12 07:24:39;;;;;;;4.83;1.80;;;5.20;99.90;;;;;;4827617;29;20185;-88
2022/10/12 07:27:08;;;;;;;7.63;2.00;;;5.20;99.90;;;;;;4827614;29;20200;-88
2022/10/12 07:29:35;;;;;;;3.00;1.83;;;5.30;99.90;;;;;;4827588;29;20617;-87
2022/10/12 07:32:01;;;;;;;4.27;1.40;;;5.40;99.90;;;;;;4835761;29;20186;-87
2022/10/12 07:34:28;;;;;;;5.07;1.60;;;5.40;99.90;;;;;;4825546;29;20249;-88
2022/10/12 07:36:54;;;;;;;4.43;1.70;;;5.60;99.90;;;;;;4835181;29;20181;-87
2022/10/12 07:39:21;;;;;;;4.57;2.20;;;5.60;99.90;;;;;;4815717;29;20197;-88
2022/10/12 07:41:49;;;;;;;7.97;1.80;;;5.80;99.90;;;;;;4808886;29;20286;-87
2022/10/12 07:44:14;;;;;;;4.27;1.90;;;5.90;99.90;;;;;;4809148;29;20288;-87
2022/10/12 07:46:40;;;;;;;4.47;1.73;;;6.00;99.90;;;;;;4809239;29;20273;-87
2022/10/12 07:49:06;;;;;;;6.37;2.53;;;6.10;99.90;;;;;;4809103;29;20181;-87
2022/10/12 07:51:32;;;;;;;7.80;3.60;;;6.20;99.90;;;;;;4808846;29;20193;-87
2022/10/12 07:53:59;;;;;;;17.30;7.30;;;6.30;99.90;;;;;;4825362;29;20648;-87
2022/10/12 07:56:25;;;;;;;34.57;10.70;;;6.40;99.90;;;;;;4808696;29;20177;-86
2022/10/12 07:58:55;;;;;;;23.13;7.27;;;6.50;99.90;;;;;;4823957;29;20182;-87
2022/10/12 08:01:24;;;;;;;14.63;4.60;;;6.60;99.90;;;;;;4808151;29;20217;-87
2022/10/12 08:03:51;;;;;;;6.00;3.03;;;6.70;99.90;;;;;;4808619;29;20181;-87
2022/10/12 08:06:20;;;;;;;12.63;3.27;;;6.90;99.90;;;;;;4841278;29;20189;-87
2022/10/12 08:08:46;;;;;;;9.10;2.20;;;7.10;99.90;;;;;;4823094;29;20225;-87
2022/10/12 08:11:13;;;;;;;7.97;2.80;;;7.20;99.90;;;;;;4846754;29;20189;-86
2022/10/12 08:13:40;;;;;;;4.20;2.07;;;7.40;99.90;;;;;;4847437;29;20178;-88
2022/10/12 08:16:10;;;;;;;7.47;2.60;;;7.40;99.90;;;;;;4830583;29;20274;-87
2022/10/12 08:18:36;;;;;;;8.80;3.03;;;7.50;99.90;;;;;;4825803;29;20197;-87
2022/10/12 08:21:07;;;;;;;4.23;2.40;;;7.60;99.90;;;;;;4832063;29;20574;-86
2022/10/12 08:23:36;;;;;;;9.63;3.10;;;7.70;99.90;;;;;;4817015;29;20190;-87
2022/10/12 08:26:02;;;;;;;12.93;2.90;;;8.00;99.90;;;;;;4831252;29;20184;-88
2022/10/12 08:28:28;;;;;;;12.20;2.97;;;8.30;99.90;;;;;;4830507;29;20188;-87
2022/10/12 08:30:54;;;;;;;16.40;3.80;;;8.50;99.90;;;;;;4830413;29;20181;-88
2022/10/12 08:33:21;;;;;;;7.87;2.47;;;8.80;99.90;;;;;;4830943;29;20194;-91
2022/10/12 08:35:48;;;;;;;9.97;2.27;;;9.10;99.90;;;;;;4842620;29;20186;-88
2022/10/12 08:38:14;;;;;;;7.90;2.63;;;9.30;99.90;;;;;;4843031;29;20565;-88
2022/10/12 08:40:55;;;;;;;7.83;2.20;;;9.50;99.90;;;;;;4841822;29;20214;-88
2022/10/12 08:43:59;;;;;;;8.40;1.88;;;9.60;99.90;;;;;;4839182;29;20284;-94
2022/10/12 08:46:26;;;;;;;7.85;1.58;;;9.90;99.90;;;;;;4827668;29;20189;-90
2022/10/12 08:49:00;;;;;;;12.32;2.05;;;10.10;99.90;;;;;;4812566;29;20622;-91
2022/10/12 08:51:29;;;;;;;7.75;1.80;;;10.20;99.90;;;;;;4828706;29;20252;-91
2022/10/12 08:53:58;;;;;;;10.23;2.17;;;10.30;99.90;;;;;;4812547;29;20277;-90
2022/10/12 08:56:24;;;;;;;11.73;1.70;;;10.60;99.90;;;;;;4828748;29;20162;-93
2022/10/12 08:58:51;;;;;;;7.35;2.03;;;10.80;99.90;;;;;;4820405;29;20245;-95
2022/10/12 09:01:38;;;;;;;10.55;1.63;;;10.90;99.90;;;;;;4847083;29;20238;-96
2022/10/12 09:04:08;;;;;;;9.25;1.55;;;11.10;99.90;;;;;;4838262;29;20214;-92
2022/10/12 09:06:58;;;;;;;7.70;1.20;;;11.20;99.90;;;;;;4841899;29;20181;-91
2022/10/12 09:10:06;;;;;;;7.25;1.55;;;11.30;99.90;;;;;;4842316;29;20233;-92
2022/10/12 09:12:50;;;;;;;8.32;1.25;;;11.30;99.90;;;;;;4842972;29;20181;-91
2022/10/12 09:15:26;;;;;;;7.88;1.50;;;11.50;99.90;;;;;;4842944;29;20178;-90
2022/10/12 09:17:57;;;;;;;8.40;1.50;;;11.60;99.90;;;;;;4843131;29;20618;-93
2022/10/12 09:20:34;;;;;;;8.45;1.48;;;11.70;99.90;;;;;;4842361;29;20277;-90
2022/10/12 09:23:04;;;;;;;11.48;1.75;;;11.80;99.90;;;;;;4845583;29;20187;-95
2022/10/12 09:25:29;;;;;;;5.82;1.20;;;12.00;99.90;;;;;;4830071;29;20181;-94
2022/10/12 09:28:13;;;;;;;11.15;1.73;;;12.00;99.90;;;;;;4830238;29;20704;-91
2022/10/12 09:30:44;;;;;;;8.88;1.58;;;12.10;99.90;;;;;;4830107;29;20276;-92
2022/10/12 09:33:27;;;;;;;8.60;1.60;;;12.20;99.90;;;;;;4815795;29;20194;-93
2022/10/12 09:35:54;;;;;;;5.25;1.20;;;12.30;99.90;;;;;;4812109;29;20193;-89
2022/10/12 09:38:20;;;;;;;6.78;1.40;;;12.30;99.90;;;;;;4828013;29;20226;-92
2022/10/12 09:40:46;;;;;;;11.48;1.75;;;12.40;99.90;;;;;;4825267;29;20214;-88
2022/10/12 09:43:14;;;;;;;12.50;1.63;;;12.40;99.90;;;;;;4827021;29;20188;-92
2022/10/12 09:45:41;;;;;;;5.30;1.25;;;12.50;99.90;;;;;;4842087;29;20194;-93
2022/10/12 09:48:27;;;;;;;5.72;1.55;;;12.50;99.90;;;;;;4842372;29;20243;-92
2022/10/12 09:50:55;;;;;;;10.70;1.23;;;12.50;99.90;;;;;;4841858;29;20273;-94
2022/10/12 09:53:36;;;;;;;9.95;1.77;;;12.50;99.90;;;;;;4842331;29;20186;-91
2022/10/12 09:56:08;;;;;;;5.68;1.42;;;12.70;99.90;;;;;;4825872;29;20574;-96
2022/10/12 09:58:48;;;;;;;7.65;1.10;;;12.70;99.90;;;;;;4826343;29;20189;-93
2022/10/12 10:01:34;;;;;;;5.68;1.55;;;12.70;99.90;;;;;;4826356;29;20262;-89
2022/10/12 10:04:22;;;;;;;10.05;1.38;;;12.80;99.90;;;;;;4808450;29;20183;-95
2022/10/12 10:06:49;;;;;;;4.85;1.17;;;12.90;99.90;;;;;;4808209;29;20631;-90
2022/10/12 10:09:38;;;;;;;5.40;1.23;;;13.00;99.90;;;;;;4808505;29;20605;-95
2022/10/12 10:12:25;;;;;;;6.70;1.38;;;13.10;99.90;;;;;;4808349;29;20195;-91
2022/10/12 10:14:56;;;;;;;6.85;1.40;;;13.10;99.90;;;;;;4808963;29;20193;-92
2022/10/12 10:17:28;;;;;;;8.73;1.50;;;13.20;99.90;;;;;;4841497;29;20189;-90
2022/10/12 10:19:55;;;;;;;6.22;0.95;;;13.20;99.90;;;;;;4841250;29;20276;-88
2022/10/12 10:22:22;;;;;;;5.00;1.42;;;13.30;99.90;;;;;;4826625;29;20306;-91
2022/10/12 10:24:54;;;;;;;10.18;1.30;;;13.30;99.90;;;;;;4810807;29;20516;-91
2022/10/12 10:27:50;;;;;;;17.17;1.83;;;13.40;99.90;;;;;;4810638;29;20186;-89
2022/10/12 10:30:16;;;;;;;9.07;1.25;;;13.50;99.90;;;;;;4811361;29;20231;-90
2022/10/12 10:32:45;;;;;;;6.85;1.70;;;13.50;99.90;;;;;;4824323;29;20229;-89
2022/10/12 10:35:12;;;;;;;14.50;1.45;;;13.60;99.90;;;;;;4810309;29;20276;-92
2022/10/12 10:37:45;;;;;;;12.18;2.03;;;13.70;99.90;;;;;;4810326;29;20186;-88
2022/10/12 10:40:27;;;;;;;10.82;1.45;;;13.80;99.90;;;;;;4818919;29;20181;-90
2022/10/12 10:43:02;;;;;;;6.47;1.10;;;13.80;99.90;;;;;;4825468;29;20217;-88
2022/10/12 10:45:42;;;;;;;6.32;1.40;;;13.90;99.90;;;;;;4843638;29;20506;-92
2022/10/12 10:48:14;;;;;;;9.65;1.35;;;13.90;99.60;;;;;;4843146;29;20177;-88
2022/10/12 10:50:42;;;;;;;4.53;1.27;;;13.90;99.90;;;;;;4812190;29;20178;-89
2022/10/12 10:53:45;;;;;;;6.32;1.20;;;13.80;99.90;;;;;;4810009;29;20580;-89
2022/10/12 10:56:26;;;;;;;8.90;1.00;;;14.00;99.90;;;;;;4824754;29;20185;-89
2022/10/12 10:58:58;;;;;;;6.55;1.13;;;14.00;99.90;;;;;;4810068;29;20207;-90
2022/10/12 11:01:42;;;;;;;8.80;1.30;;;14.00;99.80;;;;;;4822858;29;20210;-88
2022/10/12 11:04:28;;;;;;;8.88;1.30;;;14.10;99.50;;;;;;4809762;29;20664;-89
2022/10/12 11:06:58;;;;;;;6.90;1.52;;;14.20;99.80;;;;;;4809822;29;20670;-88
2022/10/12 11:09:30;;;;;;;5.88;1.27;;;14.20;99.70;;;;;;4806748;29;20246;-89
2022/10/12 11:12:02;;;;;;;6.85;1.85;;;14.30;99.70;;;;;;4806266;29;20247;-87
2022/10/12 11:14:42;;;;;;;9.70;1.92;;;14.40;99.60;;;;;;4806853;29;20178;-90
2022/10/12 11:17:32;;;;;;;8.18;1.52;;;14.50;98.60;;;;;;4807025;29;20178;-91
2022/10/12 11:20:13;;;;;;;9.05;1.77;;;14.50;98.30;;;;;;4822376;29;20178;-89
2022/10/12 11:22:53;;;;;;;11.43;1.48;;;14.50;98.20;;;;;;4822008;29;20222;-89
2022/10/12 11:25:42;;;;;;;7.95;1.40;;;14.50;98.20;;;;;;4806668;29;20183;-92
2022/10/12 11:28:13;;;;;;;8.73;1.58;;;14.60;99.20;;;;;;4821875;29;20198;-89
2022/10/12 11:30:44;;;;;;;9.07;1.55;;;14.70;97.80;;;;;;4822264;29;20526;-92
2022/10/12 11:33:37;;;;;;;5.72;1.40;;;14.70;98.00;;;;;;4807362;29;20269;-87
2022/10/12 11:36:07;;;;;;;6.70;1.30;;;14.80;99.00;;;;;;4816198;29;20251;-90
2022/10/12 11:38:37;;;;;;;11.18;1.15;;;14.90;97.70;;;;;;4807913;29;20183;-90
2022/10/12 11:41:29;;;;;;;5.32;1.30;;;14.90;98.30;;;;;;4821479;29;20214;-88
2022/10/12 11:44:04;;;;;;;6.43;1.17;;;14.90;97.00;;;;;;4799814;29;20194;-88
2022/10/12 11:46:39;;;;;;;9.63;1.52;;;14.90;96.70;;;;;;4789548;29;20179;-88
2022/10/12 11:49:55;;;;;;;6.63;1.20;;;14.90;96.70;;;;;;4789826;30;20333;-92
2022/10/12 11:52:22;;;;;;;5.95;1.30;;;14.90;97.30;;;;;;4719849;30;20189;-89
2022/10/12 11:55:43;;;;;;;7.55;1.20;;;14.90;96.40;;;;;;4804531;29;20202;-91
2022/10/12 11:58:16;;;;;;;9.70;1.55;;;15.00;96.30;;;;;;4800603;29;20194;-90
2022/10/12 12:00:57;;;;;;;7.95;1.55;;;15.10;98.00;;;;;;4823405;29;20795;-91
2022/10/12 12:03:43;;;;;;;5.30;1.33;;;15.20;96.40;;;;;;4807775;29;20267;-89
2022/10/12 12:06:28;;;;;;;7.63;1.10;;;15.20;96.10;;;;;;4810960;29;20804;-87
2022/10/12 12:09:03;;;;;;;7.55;1.23;;;15.20;95.70;;;;;;4832957;29;20240;-90
2022/10/12 12:11:33;;;;;;;5.70;1.25;;;15.20;95.30;;;;;;4825922;29;20193;-88
2022/10/12 12:14:24;;;;;;;9.73;1.30;;;15.30;96.50;;;;;;4805884;29;20274;-87
2022/10/12 12:17:08;;;;;;;8.40;1.27;;;15.40;95.00;;;;;;4821134;29;20186;-90
2022/10/12 12:19:37;;;;;;;7.15;1.20;;;15.40;94.60;;;;;;4821645;29;20175;-89
2022/10/12 12:22:09;;;;;;;7.53;1.30;;;15.50;94.60;;;;;;4821224;29;20309;-89
2022/10/12 12:24:35;;;;;;;4.22;1.05;;;15.40;94.80;;;;;;4820668;29;20190;-90
2022/10/12 12:27:01;;;;;;;8.43;1.45;;;15.40;94.70;;;;;;4820971;29;20190;-90
2022/10/12 12:29:28;;;;;;;3.78;1.10;;;15.50;95.30;;;;;;4821378;29;20205;-90
2022/10/12 12:31:59;;;;;;;4.93;1.50;;;15.50;95.70;;;;;;4806185;29;20195;-89
2022/10/12 12:34:26;;;;;;;8.38;1.40;;;15.60;95.20;;;;;;4805801;29;20264;-91
2022/10/12 12:36:52;;;;;;;8.45;1.60;;;15.60;94.40;;;;;;4806189;29;20619;-90
2022/10/12 12:39:31;;;;;;;12.63;1.75;;;15.70;95.20;;;;;;4805973;29;20187;-87
2022/10/12 12:41:58;;;;;;;4.43;1.20;;;15.70;95.40;;;;;;4809349;29;20213;-88
2022/10/12 12:44:43;;;;;;;8.43;1.30;;;15.80;95.70;;;;;;4821089;29;20572;-89
2022/10/12 12:47:09;;;;;;;4.53;1.30;;;15.80;94.50;;;;;;4820579;29;20200;-89
2022/10/12 12:49:44;;;;;;;7.43;1.27;;;16.00;95.90;;;;;;4807307;29;20186;-92
2022/10/12 12:52:21;;;;;;;7.10;1.75;;;16.10;95.40;;;;;;4806344;29;20646;-91
2022/10/12 12:55:17;;;;;;;6.63;1.40;;;16.10;95.30;;;;;;4806387;29;20178;-92
2022/10/12 12:57:49;;;;;;;5.65;1.40;;;16.10;94.80;;;;;;4823914;29;20190;-89
2022/10/12 13:00:27;;;;;;;6.38;1.23;;;16.20;96.10;;;;;;4824514;29;20178;-90
2022/10/12 13:03:17;;;;;;;10.40;1.38;;;16.20;96.40;;;;;;4809085;29;20202;-87
2022/10/12 13:06:15;;;;;;;6.22;1.50;;;16.20;95.70;;;;;;4808780;29;20179;-88
2022/10/12 13:08:59;;;;;;;5.53;1.35;;;16.30;94.30;;;;;;4815196;29;20249;-88
2022/10/12 13:11:49;;;;;;;6.68;1.50;;;16.40;94.70;;;;;;4827390;29;20564;-86
2022/10/12 13:14:26;;;;;;;8.10;1.63;;;16.60;94.00;;;;;;4826170;29;20289;-88
2022/10/12 13:17:12;;;;;;;10.13;1.50;;;16.60;93.50;;;;;;4826749;29;20177;-88
2022/10/12 13:19:39;;;;;;;5.75;1.40;;;16.60;93.90;;;;;;4811649;29;20185;-88